sensor_id;sensor_type;location;lat;lon;timestamp;temperature;humidity
80560;DHT22;70065;42.700;23.316;2023-08-31T00:00:20;31.50;29.30
80560;DHT22;70065;42.700;23.316;2023-08-31T00:02:57;31.50;29.30
80560;DHT22;70065;42.700;23.316;2023-08-31T00:05:24;31.40;29.30
80560;DHT22;70065;42.700;23.316;2023-08-31T00:08:10;31.40;29.30
80560;DHT22;70065;42.700;23.316;2023-08-31T00:10:37;31.40;29.30
80560;DHT22;70065;42.700;23.316;2023-08-31T00:13:03;31.40;29.40
80560;DHT22;70065;42.700;23.316;2023-08-31T00:15:29;31.40;29.40
80560;DHT22;70065;42.700;23.316;2023-08-31T00:17:59;31.40;29.40
80560;DHT22;70065;42.700;23.316;2023-08-31T00:20:25;31.40;29.30
80560;DHT22;70065;42.700;23.316;2023-08-31T00:22:52;31.40;29.40
80560;DHT22;70065;42.700;23.316;2023-08-31T00:25:18;31.40;29.40
80560;DHT22;70065;42.700;23.316;2023-08-31T00:27:44;31.40;29.40
80560;DHT22;70065;42.700;23.316;2023-08-31T00:30:13;31.40;29.40
80560;DHT22;70065;42.700;23.316;2023-08-31T00:32:39;31.40;29.40
80560;DHT22;70065;42.700;23.316;2023-08-31T00:35:08;31.40;29.40
80560;DHT22;70065;42.700;23.316;2023-08-31T00:37:34;31.40;29.40
80560;DHT22;70065;42.700;23.316;2023-08-31T00:40:02;31.40;29.40
80560;DHT22;70065;42.700;23.316;2023-08-31T00:42:30;31.40;29.40
80560;DHT22;70065;42.700;23.316;2023-08-31T00:44:56;31.40;29.40
80560;DHT22;70065;42.700;23.316;2023-08-31T00:47:23;31.40;29.50
80560;DHT22;70065;42.700;23.316;2023-08-31T00:49:50;31.40;29.50
80560;DHT22;70065;42.700;23.316;2023-08-31T00:52:16;31.30;29.50
80560;DHT22;70065;42.700;23.316;2023-08-31T00:54:45;31.40;29.50
80560;DHT22;70065;42.700;23.316;2023-08-31T00:57:11;31.30;29.50
80560;DHT22;70065;42.700;23.316;2023-08-31T00:59:38;31.30;29.50
80560;DHT22;70065;42.700;23.316;2023-08-31T01:02:30;31.30;29.50
80560;DHT22;70065;42.700;23.316;2023-08-31T01:05:07;31.40;29.50
80560;DHT22;70065;42.700;23.316;2023-08-31T01:10:32;31.30;29.60
80560;DHT22;70065;42.700;23.316;2023-08-31T01:13:13;31.30;29.50
80560;DHT22;70065;42.700;23.316;2023-08-31T01:15:44;31.30;29.60
80560;DHT22;70065;42.700;23.316;2023-08-31T01:18:11;31.30;29.60
80560;DHT22;70065;42.700;23.316;2023-08-31T01:26:17;31.20;29.60
80560;DHT22;70065;42.700;23.316;2023-08-31T01:28:43;31.20;29.70
80560;DHT22;70065;42.700;23.316;2023-08-31T01:31:09;31.20;29.60
80560;DHT22;70065;42.700;23.316;2023-08-31T01:33:35;31.20;29.60
80560;DHT22;70065;42.700;23.316;2023-08-31T01:36:02;31.20;29.60
80560;DHT22;70065;42.700;23.316;2023-08-31T01:38:31;31.20;29.70
80560;DHT22;70065;42.700;23.316;2023-08-31T01:41:19;31.20;29.70
80560;DHT22;70065;42.700;23.316;2023-08-31T01:43:47;31.20;29.60
80560;DHT22;70065;42.700;23.316;2023-08-31T01:46:15;31.20;29.70
80560;DHT22;70065;42.700;23.316;2023-08-31T01:48:42;31.20;29.70
80560;DHT22;70065;42.700;23.316;2023-08-31T01:51:09;31.20;29.70
80560;DHT22;70065;42.700;23.316;2023-08-31T01:53:35;31.20;29.70
80560;DHT22;70065;42.700;23.316;2023-08-31T01:56:01;31.20;29.70
80560;DHT22;70065;42.700;23.316;2023-08-31T01:58:26;31.20;29.70
80560;DHT22;70065;42.700;23.316;2023-08-31T02:00:52;31.10;29.70
80560;DHT22;70065;42.700;23.316;2023-08-31T02:03:18;31.10;29.70
80560;DHT22;70065;42.700;23.316;2023-08-31T02:05:43;31.20;29.60
80560;DHT22;70065;42.700;23.316;2023-08-31T02:08:09;31.10;29.70
80560;DHT22;70065;42.700;23.316;2023-08-31T02:10:35;31.20;29.80
80560;DHT22;70065;42.700;23.316;2023-08-31T02:13:00;31.10;29.70
80560;DHT22;70065;42.700;23.316;2023-08-31T02:15:27;31.20;29.80
80560;DHT22;70065;42.700;23.316;2023-08-31T02:17:53;31.10;29.70
80560;DHT22;70065;42.700;23.316;2023-08-31T02:20:25;31.10;29.70
80560;DHT22;70065;42.700;23.316;2023-08-31T02:22:52;31.20;29.80
80560;DHT22;70065;42.700;23.316;2023-08-31T02:25:17;31.10;29.80
80560;DHT22;70065;42.700;23.316;2023-08-31T02:27:44;31.10;29.80
80560;DHT22;70065;42.700;23.316;2023-08-31T02:30:15;31.10;29.80
80560;DHT22;70065;42.700;23.316;2023-08-31T02:32:41;31.10;29.60
80560;DHT22;70065;42.700;23.316;2023-08-31T02:35:07;31.00;29.80
80560;DHT22;70065;42.700;23.316;2023-08-31T02:37:33;31.00;29.70
80560;DHT22;70065;42.700;23.316;2023-08-31T02:40:01;31.00;29.70
80560;DHT22;70065;42.700;23.316;2023-08-31T02:42:26;31.00;29.80
80560;DHT22;70065;42.700;23.316;2023-08-31T02:44:53;31.00;29.70
80560;DHT22;70065;42.700;23.316;2023-08-31T02:47:22;31.00;29.70
80560;DHT22;70065;42.700;23.316;2023-08-31T02:49:48;31.00;29.80
80560;DHT22;70065;42.700;23.316;2023-08-31T02:52:14;31.00;30.60
80560;DHT22;70065;42.700;23.316;2023-08-31T02:54:39;31.00;29.80
80560;DHT22;70065;42.700;23.316;2023-08-31T02:57:06;30.90;29.80
80560;DHT22;70065;42.700;23.316;2023-08-31T02:59:33;31.00;29.80
80560;DHT22;70065;42.700;23.316;2023-08-31T03:02:02;31.00;29.80
80560;DHT22;70065;42.700;23.316;2023-08-31T03:04:28;31.00;29.70
80560;DHT22;70065;42.700;23.316;2023-08-31T03:06:54;31.00;29.90
80560;DHT22;70065;42.700;23.316;2023-08-31T03:09:20;31.00;29.90
80560;DHT22;70065;42.700;23.316;2023-08-31T03:11:46;31.00;29.90
80560;DHT22;70065;42.700;23.316;2023-08-31T03:14:12;30.90;29.80
80560;DHT22;70065;42.700;23.316;2023-08-31T03:16:37;31.00;29.80
80560;DHT22;70065;42.700;23.316;2023-08-31T03:19:03;30.90;29.90
80560;DHT22;70065;42.700;23.316;2023-08-31T03:21:29;30.90;29.90
80560;DHT22;70065;42.700;23.316;2023-08-31T03:23:55;30.90;29.90
80560;DHT22;70065;42.700;23.316;2023-08-31T03:26:21;30.90;29.70
80560;DHT22;70065;42.700;23.316;2023-08-31T03:28:47;30.90;29.90
80560;DHT22;70065;42.700;23.316;2023-08-31T03:31:12;30.90;29.90
80560;DHT22;70065;42.700;23.316;2023-08-31T03:33:38;30.90;29.90
80560;DHT22;70065;42.700;23.316;2023-08-31T03:36:04;30.90;29.80
80560;DHT22;70065;42.700;23.316;2023-08-31T03:38:31;30.90;29.80
80560;DHT22;70065;42.700;23.316;2023-08-31T03:40:58;30.90;29.80
80560;DHT22;70065;42.700;23.316;2023-08-31T03:43:24;30.90;29.90
80560;DHT22;70065;42.700;23.316;2023-08-31T03:45:54;30.90;29.90
80560;DHT22;70065;42.700;23.316;2023-08-31T03:48:25;30.90;29.90
80560;DHT22;70065;42.700;23.316;2023-08-31T03:50:54;30.90;29.90
80560;DHT22;70065;42.700;23.316;2023-08-31T03:53:20;30.90;29.80
80560;DHT22;70065;42.700;23.316;2023-08-31T03:55:46;30.90;29.90
80560;DHT22;70065;42.700;23.316;2023-08-31T03:58:12;30.90;29.80
80560;DHT22;70065;42.700;23.316;2023-08-31T04:00:38;30.90;30.60
80560;DHT22;70065;42.700;23.316;2023-08-31T04:03:05;30.90;29.80
80560;DHT22;70065;42.700;23.316;2023-08-31T04:05:34;31.00;29.80
80560;DHT22;70065;42.700;23.316;2023-08-31T04:08:00;31.00;29.80
80560;DHT22;70065;42.700;23.316;2023-08-31T04:10:26;31.10;29.80
80560;DHT22;70065;42.700;23.316;2023-08-31T04:12:54;31.20;29.60
80560;DHT22;70065;42.700;23.316;2023-08-31T04:15:19;31.60;29.30
80560;DHT22;70065;42.700;23.316;2023-08-31T04:17:47;32.00;29.10
80560;DHT22;70065;42.700;23.316;2023-08-31T04:20:16;32.20;28.60
80560;DHT22;70065;42.700;23.316;2023-08-31T04:22:46;32.60;28.50
80560;DHT22;70065;42.700;23.316;2023-08-31T04:25:12;33.00;27.90
80560;DHT22;70065;42.700;23.316;2023-08-31T04:27:38;33.40;27.70
80560;DHT22;70065;42.700;23.316;2023-08-31T04:30:07;33.80;27.20
80560;DHT22;70065;42.700;23.316;2023-08-31T04:32:33;34.40;26.80
80560;DHT22;70065;42.700;23.316;2023-08-31T04:34:59;34.90;26.20
80560;DHT22;70065;42.700;23.316;2023-08-31T04:37:26;35.40;25.70
80560;DHT22;70065;42.700;23.316;2023-08-31T04:39:52;35.50;25.30
80560;DHT22;70065;42.700;23.316;2023-08-31T04:42:18;35.80;25.20
80560;DHT22;70065;42.700;23.316;2023-08-31T04:44:44;36.30;24.80
80560;DHT22;70065;42.700;23.316;2023-08-31T04:47:10;36.90;24.20
80560;DHT22;70065;42.700;23.316;2023-08-31T04:49:36;37.60;23.80
80560;DHT22;70065;42.700;23.316;2023-08-31T04:52:02;38.20;23.30
80560;DHT22;70065;42.700;23.316;2023-08-31T04:54:28;38.70;22.90
80560;DHT22;70065;42.700;23.316;2023-08-31T04:56:53;39.30;22.40
80560;DHT22;70065;42.700;23.316;2023-08-31T04:59:19;39.80;22.00
80560;DHT22;70065;42.700;23.316;2023-08-31T05:01:45;40.30;21.30
80560;DHT22;70065;42.700;23.316;2023-08-31T05:04:13;40.70;21.10
80560;DHT22;70065;42.700;23.316;2023-08-31T05:06:40;41.20;20.70
80560;DHT22;70065;42.700;23.316;2023-08-31T05:09:06;41.50;20.50
80560;DHT22;70065;42.700;23.316;2023-08-31T05:11:36;41.90;20.00
80560;DHT22;70065;42.700;23.316;2023-08-31T05:14:13;42.40;19.70
80560;DHT22;70065;42.700;23.316;2023-08-31T05:16:51;42.70;19.40
80560;DHT22;70065;42.700;23.316;2023-08-31T05:19:19;43.30;19.20
80560;DHT22;70065;42.700;23.316;2023-08-31T05:21:47;43.60;18.90
80560;DHT22;70065;42.700;23.316;2023-08-31T05:24:22;43.90;18.50
80560;DHT22;70065;42.700;23.316;2023-08-31T05:27:01;44.30;18.20
80560;DHT22;70065;42.700;23.316;2023-08-31T05:32:16;44.90;17.80
80560;DHT22;70065;42.700;23.316;2023-08-31T05:35:11;45.10;17.70
80560;DHT22;70065;42.700;23.316;2023-08-31T05:38:17;45.30;17.70
80560;DHT22;70065;42.700;23.316;2023-08-31T05:40:45;45.40;17.60
80560;DHT22;70065;42.700;23.316;2023-08-31T05:43:16;45.40;17.30
80560;DHT22;70065;42.700;23.316;2023-08-31T05:45:42;45.50;17.30
80560;DHT22;70065;42.700;23.316;2023-08-31T05:48:08;45.50;17.30
80560;DHT22;70065;42.700;23.316;2023-08-31T05:50:58;45.50;17.20
80560;DHT22;70065;42.700;23.316;2023-08-31T05:53:59;45.50;17.20
80560;DHT22;70065;42.700;23.316;2023-08-31T05:56:28;45.50;17.10
80560;DHT22;70065;42.700;23.316;2023-08-31T06:02:33;45.10;17.30
80560;DHT22;70065;42.700;23.316;2023-08-31T06:05:17;44.90;17.40
80560;DHT22;70065;42.700;23.316;2023-08-31T06:10:29;44.70;17.60
80560;DHT22;70065;42.700;23.316;2023-08-31T06:12:56;44.60;17.50
80560;DHT22;70065;42.700;23.316;2023-08-31T06:15:47;44.60;17.50
80560;DHT22;70065;42.700;23.316;2023-08-31T07:17:10;46.20;16.60
80560;DHT22;70065;42.700;23.316;2023-08-31T07:19:44;46.40;16.50
80560;DHT22;70065;42.700;23.316;2023-08-31T07:22:10;46.60;16.50
80560;DHT22;70065;42.700;23.316;2023-08-31T07:24:52;46.80;16.30
80560;DHT22;70065;42.700;23.316;2023-08-31T07:27:26;47.00;15.90
80560;DHT22;70065;42.700;23.316;2023-08-31T07:30:42;47.30;16.00
80560;DHT22;70065;42.700;23.316;2023-08-31T07:33:34;47.60;15.70
80560;DHT22;70065;42.700;23.316;2023-08-31T07:36:22;48.00;15.60
80560;DHT22;70065;42.700;23.316;2023-08-31T07:39:21;48.20;15.40
80560;DHT22;70065;42.700;23.316;2023-08-31T07:41:53;48.50;15.20
80560;DHT22;70065;42.700;23.316;2023-08-31T07:44:56;48.80;15.00
80560;DHT22;70065;42.700;23.316;2023-08-31T07:47:32;49.10;14.80
80560;DHT22;70065;42.700;23.316;2023-08-31T07:49:58;49.40;14.70
80560;DHT22;70065;42.700;23.316;2023-08-31T07:52:27;49.60;14.40
80560;DHT22;70065;42.700;23.316;2023-08-31T07:54:53;49.90;14.50
80560;DHT22;70065;42.700;23.316;2023-08-31T07:57:29;50.10;14.40
80560;DHT22;70065;42.700;23.316;2023-08-31T08:00:20;50.30;14.30
80560;DHT22;70065;42.700;23.316;2023-08-31T08:02:55;50.50;14.20
80560;DHT22;70065;42.700;23.316;2023-08-31T08:05:21;50.60;14.10
80560;DHT22;70065;42.700;23.316;2023-08-31T08:08:42;50.70;14.00
80560;DHT22;70065;42.700;23.316;2023-08-31T08:11:41;51.00;13.90
80560;DHT22;70065;42.700;23.316;2023-08-31T08:14:07;51.10;13.80
80560;DHT22;70065;42.700;23.316;2023-08-31T08:16:44;51.20;13.80
80560;DHT22;70065;42.700;23.316;2023-08-31T08:19:10;51.30;13.70
80560;DHT22;70065;42.700;23.316;2023-08-31T08:21:38;51.40;13.60
80560;DHT22;70065;42.700;23.316;2023-08-31T08:24:04;51.50;13.50
80560;DHT22;70065;42.700;23.316;2023-08-31T08:26:30;51.70;13.50
80560;DHT22;70065;42.700;23.316;2023-08-31T08:29:34;51.80;13.40
80560;DHT22;70065;42.700;23.316;2023-08-31T08:32:27;51.90;13.30
80560;DHT22;70065;42.700;23.316;2023-08-31T08:35:02;52.00;13.20
80560;DHT22;70065;42.700;23.316;2023-08-31T08:37:30;52.10;13.10
80560;DHT22;70065;42.700;23.316;2023-08-31T08:40:19;52.20;13.20
80560;DHT22;70065;42.700;23.316;2023-08-31T08:52:11;51.80;13.20
80560;DHT22;70065;42.700;23.316;2023-08-31T08:54:44;51.30;13.40
80560;DHT22;70065;42.700;23.316;2023-08-31T08:58:00;50.90;13.60
80560;DHT22;70065;42.700;23.316;2023-08-31T09:00:42;50.10;14.00
80560;DHT22;70065;42.700;23.316;2023-08-31T09:03:21;49.30;14.40
80560;DHT22;70065;42.700;23.316;2023-08-31T09:09:09;47.60;15.10
80560;DHT22;70065;42.700;23.316;2023-08-31T09:11:39;46.60;15.60
80560;DHT22;70065;42.700;23.316;2023-08-31T09:14:19;45.70;16.10
80560;DHT22;70065;42.700;23.316;2023-08-31T09:16:53;44.90;16.50
80560;DHT22;70065;42.700;23.316;2023-08-31T09:19:24;44.20;17.10
80560;DHT22;70065;42.700;23.316;2023-08-31T09:21:56;43.60;17.40
80560;DHT22;70065;42.700;23.316;2023-08-31T09:24:23;43.10;17.80
80560;DHT22;70065;42.700;23.316;2023-08-31T09:26:58;42.60;18.10
80560;DHT22;70065;42.700;23.316;2023-08-31T09:29:27;42.20;18.30
80560;DHT22;70065;42.700;23.316;2023-08-31T09:35:35;41.40;18.80
80560;DHT22;70065;42.700;23.316;2023-08-31T09:38:16;41.10;19.20
80560;DHT22;70065;42.700;23.316;2023-08-31T09:41:19;40.80;19.30
80560;DHT22;70065;42.700;23.316;2023-08-31T09:43:44;40.50;19.50
80560;DHT22;70065;42.700;23.316;2023-08-31T09:46:39;40.30;19.90
80560;DHT22;70065;42.700;23.316;2023-08-31T09:49:26;40.10;19.90
80560;DHT22;70065;42.700;23.316;2023-08-31T09:52:34;39.80;20.00
80560;DHT22;70065;42.700;23.316;2023-08-31T09:55:09;39.50;20.30
80560;DHT22;70065;42.700;23.316;2023-08-31T09:57:42;39.20;20.70
80560;DHT22;70065;42.700;23.316;2023-08-31T10:03:37;38.70;21.00
80560;DHT22;70065;42.700;23.316;2023-08-31T10:06:05;38.40;21.30
80560;DHT22;70065;42.700;23.316;2023-08-31T10:11:15;37.90;21.40
80560;DHT22;70065;42.700;23.316;2023-08-31T10:14:11;37.80;21.80
80560;DHT22;70065;42.700;23.316;2023-08-31T10:17:10;37.60;21.90
80560;DHT22;70065;42.700;23.316;2023-08-31T10:19:36;37.50;21.90
80560;DHT22;70065;42.700;23.316;2023-08-31T10:22:36;37.40;22.20
80560;DHT22;70065;42.700;23.316;2023-08-31T10:25:13;37.30;22.00
80560;DHT22;70065;42.700;23.316;2023-08-31T10:28:10;37.20;22.30
80560;DHT22;70065;42.700;23.316;2023-08-31T10:31:18;37.20;22.40
80560;DHT22;70065;42.700;23.316;2023-08-31T10:34:19;37.00;22.30
80560;DHT22;70065;42.700;23.316;2023-08-31T10:37:19;36.80;22.60
80560;DHT22;70065;42.700;23.316;2023-08-31T10:40:12;36.80;22.60
80560;DHT22;70065;42.700;23.316;2023-08-31T10:52:57;36.30;22.70
80560;DHT22;70065;42.700;23.316;2023-08-31T10:56:28;36.40;22.80
80560;DHT22;70065;42.700;23.316;2023-08-31T10:59:23;36.50;22.80
80560;DHT22;70065;42.700;23.316;2023-08-31T11:02:01;36.60;22.70
80560;DHT22;70065;42.700;23.316;2023-08-31T11:04:30;36.70;22.70
80560;DHT22;70065;42.700;23.316;2023-08-31T11:07:19;36.80;22.60
80560;DHT22;70065;42.700;23.316;2023-08-31T11:09:47;36.90;22.70
80560;DHT22;70065;42.700;23.316;2023-08-31T11:12:14;36.90;22.40
80560;DHT22;70065;42.700;23.316;2023-08-31T11:14:41;36.90;22.60
80560;DHT22;70065;42.700;23.316;2023-08-31T11:17:07;36.80;22.50
80560;DHT22;70065;42.700;23.316;2023-08-31T11:19:35;36.80;22.50
80560;DHT22;70065;42.700;23.316;2023-08-31T11:22:01;36.80;22.60
80560;DHT22;70065;42.700;23.316;2023-08-31T11:24:31;36.90;22.50
80560;DHT22;70065;42.700;23.316;2023-08-31T11:27:01;36.90;22.60
80560;DHT22;70065;42.700;23.316;2023-08-31T11:29:31;37.00;22.50
80560;DHT22;70065;42.700;23.316;2023-08-31T11:31:57;36.90;22.40
80560;DHT22;70065;42.700;23.316;2023-08-31T11:34:28;37.00;22.50
80560;DHT22;70065;42.700;23.316;2023-08-31T11:36:55;36.90;22.40
80560;DHT22;70065;42.700;23.316;2023-08-31T11:39:24;36.90;22.50
80560;DHT22;70065;42.700;23.316;2023-08-31T11:41:49;36.80;22.60
80560;DHT22;70065;42.700;23.316;2023-08-31T11:44:16;36.80;22.60
80560;DHT22;70065;42.700;23.316;2023-08-31T11:46:46;36.80;22.60
80560;DHT22;70065;42.700;23.316;2023-08-31T11:49:19;36.80;22.60
80560;DHT22;70065;42.700;23.316;2023-08-31T11:51:55;36.80;22.60
80560;DHT22;70065;42.700;23.316;2023-08-31T11:58:09;37.00;22.60
80560;DHT22;70065;42.700;23.316;2023-08-31T12:03:55;36.90;22.60
80560;DHT22;70065;42.700;23.316;2023-08-31T12:09:42;36.70;22.70
80560;DHT22;70065;42.700;23.316;2023-08-31T12:22:36;36.60;22.70
80560;DHT22;70065;42.700;23.316;2023-08-31T12:25:20;36.50;22.50
80560;DHT22;70065;42.700;23.316;2023-08-31T12:28:23;36.60;22.70
80560;DHT22;70065;42.700;23.316;2023-08-31T12:34:17;36.50;22.70
80560;DHT22;70065;42.700;23.316;2023-08-31T12:37:08;36.40;22.70
80560;DHT22;70065;42.700;23.316;2023-08-31T12:39:34;36.30;22.80
80560;DHT22;70065;42.700;23.316;2023-08-31T12:47:43;36.10;23.10
80560;DHT22;70065;42.700;23.316;2023-08-31T12:50:28;36.10;23.00
80560;DHT22;70065;42.700;23.316;2023-08-31T12:53:14;36.10;23.10
80560;DHT22;70065;42.700;23.316;2023-08-31T12:58:27;36.10;23.10
80560;DHT22;70065;42.700;23.316;2023-08-31T13:00:53;36.10;23.00
80560;DHT22;70065;42.700;23.316;2023-08-31T13:03:20;36.00;23.00
80560;DHT22;70065;42.700;23.316;2023-08-31T13:05:47;35.90;22.90
80560;DHT22;70065;42.700;23.316;2023-08-31T13:08:14;35.80;23.00
80560;DHT22;70065;42.700;23.316;2023-08-31T13:10:39;35.80;23.30
80560;DHT22;70065;42.700;23.316;2023-08-31T13:13:06;35.60;23.40
80560;DHT22;70065;42.700;23.316;2023-08-31T13:15:32;35.60;23.50
80560;DHT22;70065;42.700;23.316;2023-08-31T13:17:59;35.50;23.40
80560;DHT22;70065;42.700;23.316;2023-08-31T13:20:24;35.40;23.60
80560;DHT22;70065;42.700;23.316;2023-08-31T13:26:19;35.30;23.60
80560;DHT22;70065;42.700;23.316;2023-08-31T13:29:08;35.20;23.80
80560;DHT22;70065;42.700;23.316;2023-08-31T13:32:08;35.20;23.70
80560;DHT22;70065;42.700;23.316;2023-08-31T13:34:34;35.20;23.80
80560;DHT22;70065;42.700;23.316;2023-08-31T13:37:00;35.20;24.00
80560;DHT22;70065;42.700;23.316;2023-08-31T13:39:53;35.20;23.80
80560;DHT22;70065;42.700;23.316;2023-08-31T13:45:53;35.40;23.70
80560;DHT22;70065;42.700;23.316;2023-08-31T13:48:26;35.50;23.50
80560;DHT22;70065;42.700;23.316;2023-08-31T13:51:07;35.60;23.60
80560;DHT22;70065;42.700;23.316;2023-08-31T13:53:36;35.70;23.50
80560;DHT22;70065;42.700;23.316;2023-08-31T13:56:01;35.80;23.50
80560;DHT22;70065;42.700;23.316;2023-08-31T13:58:27;35.70;23.50
80560;DHT22;70065;42.700;23.316;2023-08-31T14:01:00;35.60;23.50
80560;DHT22;70065;42.700;23.316;2023-08-31T14:03:57;35.50;23.50
80560;DHT22;70065;42.700;23.316;2023-08-31T14:06:58;35.50;23.70
80560;DHT22;70065;42.700;23.316;2023-08-31T14:13:31;35.20;23.90
80560;DHT22;70065;42.700;23.316;2023-08-31T14:16:00;35.00;24.60
80560;DHT22;70065;42.700;23.316;2023-08-31T14:18:39;34.90;24.10
80560;DHT22;70065;42.700;23.316;2023-08-31T14:21:06;34.80;24.00
80560;DHT22;70065;42.700;23.316;2023-08-31T14:23:57;34.70;24.00
80560;DHT22;70065;42.700;23.316;2023-08-31T14:27:01;34.70;24.30
80560;DHT22;70065;42.700;23.316;2023-08-31T14:29:39;34.60;24.20
80560;DHT22;70065;42.700;23.316;2023-08-31T14:32:05;34.60;24.30
80560;DHT22;70065;42.700;23.316;2023-08-31T14:35:06;34.50;24.40
80560;DHT22;70065;42.700;23.316;2023-08-31T14:38:10;34.50;24.20
80560;DHT22;70065;42.700;23.316;2023-08-31T14:41:12;34.40;24.50
80560;DHT22;70065;42.700;23.316;2023-08-31T14:43:41;34.50;24.40
80560;DHT22;70065;42.700;23.316;2023-08-31T14:46:07;34.30;24.60
80560;DHT22;70065;42.700;23.316;2023-08-31T14:48:37;34.20;24.70
80560;DHT22;70065;42.700;23.316;2023-08-31T14:51:12;34.20;24.70
80560;DHT22;70065;42.700;23.316;2023-08-31T14:53:51;34.10;24.80
80560;DHT22;70065;42.700;23.316;2023-08-31T15:03:46;33.90;25.10
80560;DHT22;70065;42.700;23.316;2023-08-31T15:06:12;33.80;25.00
80560;DHT22;70065;42.700;23.316;2023-08-31T15:08:40;33.80;25.00
80560;DHT22;70065;42.700;23.316;2023-08-31T15:11:11;33.70;25.10
80560;DHT22;70065;42.700;23.316;2023-08-31T15:13:37;33.70;25.20
80560;DHT22;70065;42.700;23.316;2023-08-31T15:16:03;33.60;25.10
80560;DHT22;70065;42.700;23.316;2023-08-31T15:18:31;33.60;25.20
80560;DHT22;70065;42.700;23.316;2023-08-31T15:20:57;33.60;25.30
80560;DHT22;70065;42.700;23.316;2023-08-31T15:23:23;33.50;25.20
80560;DHT22;70065;42.700;23.316;2023-08-31T15:25:50;33.40;25.40
80560;DHT22;70065;42.700;23.316;2023-08-31T15:28:16;33.40;25.50
80560;DHT22;70065;42.700;23.316;2023-08-31T15:30:41;33.30;25.50
80560;DHT22;70065;42.700;23.316;2023-08-31T15:36:10;33.30;25.70
80560;DHT22;70065;42.700;23.316;2023-08-31T15:38:49;33.20;25.70
80560;DHT22;70065;42.700;23.316;2023-08-31T15:45:10;33.00;25.70
80560;DHT22;70065;42.700;23.316;2023-08-31T15:51:05;32.90;25.90
80560;DHT22;70065;42.700;23.316;2023-08-31T15:53:31;32.80;25.90
80560;DHT22;70065;42.700;23.316;2023-08-31T15:55:56;32.80;25.90
80560;DHT22;70065;42.700;23.316;2023-08-31T15:58:22;32.80;26.00
80560;DHT22;70065;42.700;23.316;2023-08-31T16:00:51;32.70;26.00
80560;DHT22;70065;42.700;23.316;2023-08-31T16:03:25;32.70;26.10
80560;DHT22;70065;42.700;23.316;2023-08-31T16:05:53;32.70;26.10
80560;DHT22;70065;42.700;23.316;2023-08-31T16:08:19;32.60;26.10
80560;DHT22;70065;42.700;23.316;2023-08-31T16:10:47;32.60;26.10
80560;DHT22;70065;42.700;23.316;2023-08-31T16:13:16;32.50;26.10
80560;DHT22;70065;42.700;23.316;2023-08-31T16:15:49;32.50;26.20
80560;DHT22;70065;42.700;23.316;2023-08-31T16:18:16;32.50;26.20
80560;DHT22;70065;42.700;23.316;2023-08-31T16:20:47;32.50;26.30
80560;DHT22;70065;42.700;23.316;2023-08-31T16:23:13;32.40;26.20
80560;DHT22;70065;42.700;23.316;2023-08-31T16:25:39;32.40;26.30
80560;DHT22;70065;42.700;23.316;2023-08-31T16:28:05;32.30;26.30
80560;DHT22;70065;42.700;23.316;2023-08-31T16:30:34;32.30;26.30
80560;DHT22;70065;42.700;23.316;2023-08-31T16:32:59;32.30;26.40
80560;DHT22;70065;42.700;23.316;2023-08-31T16:35:26;32.30;26.40
80560;DHT22;70065;42.700;23.316;2023-08-31T16:37:54;32.30;26.40
80560;DHT22;70065;42.700;23.316;2023-08-31T16:40:20;32.30;26.40
80560;DHT22;70065;42.700;23.316;2023-08-31T16:42:47;32.20;26.40
80560;DHT22;70065;42.700;23.316;2023-08-31T16:45:13;32.20;26.50
80560;DHT22;70065;42.700;23.316;2023-08-31T16:47:39;32.20;27.30
80560;DHT22;70065;42.700;23.316;2023-08-31T16:50:09;32.10;26.50
80560;DHT22;70065;42.700;23.316;2023-08-31T16:52:39;32.10;26.60
80560;DHT22;70065;42.700;23.316;2023-08-31T16:55:18;32.10;26.60
80560;DHT22;70065;42.700;23.316;2023-08-31T16:57:51;32.10;26.60
80560;DHT22;70065;42.700;23.316;2023-08-31T17:00:17;32.10;26.70
80560;DHT22;70065;42.700;23.316;2023-08-31T17:02:44;32.00;26.70
80560;DHT22;70065;42.700;23.316;2023-08-31T17:05:10;32.00;26.70
80560;DHT22;70065;42.700;23.316;2023-08-31T17:07:35;32.00;26.70
80560;DHT22;70065;42.700;23.316;2023-08-31T17:10:01;32.00;26.70
80560;DHT22;70065;42.700;23.316;2023-08-31T17:12:29;31.90;26.70
80560;DHT22;70065;42.700;23.316;2023-08-31T17:14:57;32.00;26.80
80560;DHT22;70065;42.700;23.316;2023-08-31T17:17:23;31.90;26.80
80560;DHT22;70065;42.700;23.316;2023-08-31T17:19:51;31.90;26.80
80560;DHT22;70065;42.700;23.316;2023-08-31T17:22:20;31.90;26.90
80560;DHT22;70065;42.700;23.316;2023-08-31T17:24:46;31.90;26.90
80560;DHT22;70065;42.700;23.316;2023-08-31T17:27:12;31.90;26.90
80560;DHT22;70065;42.700;23.316;2023-08-31T17:29:38;31.90;26.90
80560;DHT22;70065;42.700;23.316;2023-08-31T17:32:04;31.80;26.90
80560;DHT22;70065;42.700;23.316;2023-08-31T17:34:30;31.80;27.60
80560;DHT22;70065;42.700;23.316;2023-08-31T17:36:55;31.80;26.90
80560;DHT22;70065;42.700;23.316;2023-08-31T17:39:24;31.80;27.00
80560;DHT22;70065;42.700;23.316;2023-08-31T17:41:50;31.80;27.00
80560;DHT22;70065;42.700;23.316;2023-08-31T17:44:17;31.80;27.00
80560;DHT22;70065;42.700;23.316;2023-08-31T17:46:43;31.70;27.00
80560;DHT22;70065;42.700;23.316;2023-08-31T17:49:12;31.70;27.00
80560;DHT22;70065;42.700;23.316;2023-08-31T17:51:41;31.70;27.00
80560;DHT22;70065;42.700;23.316;2023-08-31T17:54:07;31.70;27.00
80560;DHT22;70065;42.700;23.316;2023-08-31T17:56:32;31.70;27.00
80560;DHT22;70065;42.700;23.316;2023-08-31T17:59:13;31.70;27.00
80560;DHT22;70065;42.700;23.316;2023-08-31T18:04:28;31.70;26.90
80560;DHT22;70065;42.700;23.316;2023-08-31T18:06:54;31.70;26.90
80560;DHT22;70065;42.700;23.316;2023-08-31T18:09:32;31.70;27.10
80560;DHT22;70065;42.700;23.316;2023-08-31T18:12:03;31.70;27.10
80560;DHT22;70065;42.700;23.316;2023-08-31T18:14:39;31.60;27.10
80560;DHT22;70065;42.700;23.316;2023-08-31T18:17:06;31.60;27.10
80560;DHT22;70065;42.700;23.316;2023-08-31T18:19:34;31.60;27.20
80560;DHT22;70065;42.700;23.316;2023-08-31T18:22:01;31.60;27.10
80560;DHT22;70065;42.700;23.316;2023-08-31T18:24:28;31.60;27.20
80560;DHT22;70065;42.700;23.316;2023-08-31T18:26:53;31.60;27.10
80560;DHT22;70065;42.700;23.316;2023-08-31T18:29:19;31.60;27.10
80560;DHT22;70065;42.700;23.316;2023-08-31T18:31:47;31.60;27.10
80560;DHT22;70065;42.700;23.316;2023-08-31T18:34:13;31.60;27.20
80560;DHT22;70065;42.700;23.316;2023-08-31T18:36:39;31.60;27.20
80560;DHT22;70065;42.700;23.316;2023-08-31T18:39:06;31.60;27.20